Time;durP1;ratioP1;P1;durP2;ratioP2;P2;SDS_P1;SDS_P2;PMS_P1;PMS_P2;Temp;Humidity;BMP_temperature;BMP_pressure;BME280_temperature;BME280_humidity;BME280_pressure;Samples;Min_cycle;Max_cycle;Signal;HPM_P1;HPM_P2
2021/09/29 00:01:59;;;;;;;7.15;2.92;;;;;;;17.50;59.12;101070.00;5031811;28;20078;-73
2021/09/29 00:04:24;;;;;;;5.82;2.50;;;;;;;17.24;59.08;101062.53;5031408;28;20049;-71
2021/09/29 00:06:50;;;;;;;6.82;2.70;;;;;;;17.18;59.23;101067.66;5029319;28;20037;-68
2021/09/29 00:09:15;;;;;;;8.65;2.88;;;;;;;17.27;60.09;101094.81;5012335;28;20527;-68
2021/09/29 00:11:41;;;;;;;5.03;2.53;;;;;;;17.27;59.53;101089.59;5011432;28;20055;-75
2021/09/29 00:14:06;;;;;;;6.57;2.67;;;;;;;17.29;60.14;101087.00;5015014;28;22596;-70
2021/09/29 00:16:32;;;;;;;5.57;2.63;;;;;;;17.25;59.58;101082.56;5012322;28;20080;-72
2021/09/29 00:18:58;;;;;;;3.85;2.50;;;;;;;17.11;59.93;101058.84;5012480;28;20026;-70
2021/09/29 00:21:23;;;;;;;4.15;2.50;;;;;;;17.03;60.17;101068.22;5011609;28;20468;-69
2021/09/29 00:23:48;;;;;;;5.70;3.38;;;;;;;17.13;60.55;101076.28;5013435;28;20038;-70
2021/09/29 00:26:14;;;;;;;6.43;2.92;;;;;;;17.14;60.50;101071.91;5013088;28;20026;-70
2021/09/29 00:28:40;;;;;;;5.78;3.35;;;;;;;17.19;60.45;101080.72;5013038;28;20026;-71
2021/09/29 00:31:06;;;;;;;7.18;3.30;;;;;;;17.12;60.00;101074.50;5015453;28;20037;-67
2021/09/29 00:33:36;;;;;;;5.40;3.10;;;;;;;17.18;60.44;101068.50;5013105;28;20039;-71
2021/09/29 00:36:02;;;;;;;4.60;3.33;;;;;;;17.20;60.21;101077.25;5014443;28;20087;-70
2021/09/29 00:38:30;;;;;;;5.63;2.75;;;;;;;16.91;60.14;101043.66;5012079;28;20026;-70
2021/09/29 00:40:59;;;;;;;6.87;3.17;;;;;;;17.07;60.31;101064.81;5028926;28;20025;-68
2021/09/29 00:43:25;;;;;;;6.10;2.97;;;;;;;17.11;60.64;101071.88;5031025;28;20466;-68
2021/09/29 00:45:50;;;;;;;4.78;2.70;;;;;;;16.99;59.63;101041.19;5031095;28;20100;-69
2021/09/29 00:48:16;;;;;;;4.50;2.90;;;;;;;17.10;60.40;101065.75;5031077;28;20068;-67
2021/09/29 00:50:41;;;;;;;5.22;2.65;;;;;;;17.14;59.99;101067.56;5019167;28;20416;-66
2021/09/29 00:53:07;;;;;;;4.70;2.78;;;;;;;17.14;59.78;101069.31;5030760;28;20385;-69
2021/09/29 00:55:33;;;;;;;5.32;2.80;;;;;;;17.09;60.48;101064.00;5018666;28;20030;-68
2021/09/29 00:57:59;;;;;;;4.22;2.53;;;;;;;17.12;59.93;101061.47;5016964;28;20036;-70
2021/09/29 01:00:25;;;;;;;7.18;3.03;;;;;;;17.18;60.00;101068.50;5029667;28;20029;-66
2021/09/29 01:02:50;;;;;;;10.18;3.00;;;;;;;16.95;59.67;101003.72;5030538;28;20029;-70
2021/09/29 01:05:16;;;;;;;4.85;2.83;;;;;;;17.24;59.75;101059.94;5031046;28;20064;-66
2021/09/29 01:07:51;;;;;;;6.00;3.30;;;;;;;17.29;60.00;101053.06;5030600;28;20037;-68
2021/09/29 01:10:34;;;;;;;4.88;2.95;;;;;;;17.20;59.51;101045.94;5030821;28;20018;-66
2021/09/29 01:13:04;;;;;;;7.95;2.97;;;;;;;17.19;59.01;101049.41;5030723;28;20040;-66
2021/09/29 01:15:34;;;;;;;5.07;2.97;;;;;;;17.34;59.70;101058.38;5030670;28;20392;-70
2021/09/29 01:18:09;;;;;;;8.98;3.20;;;;;;;17.28;59.66;101056.53;5023046;28;20042;-66
2021/09/29 01:21:03;;;;;;;5.55;3.17;;;;;;;17.30;59.19;101052.22;5027167;28;20041;-71
2021/09/29 01:23:41;;;;;;;8.23;3.20;;;;;;;17.14;59.77;101062.34;5031762;28;20056;-68
2021/09/29 01:26:15;;;;;;;7.97;3.30;;;;;;;17.12;60.11;101068.38;5033308;28;20029;-68
2021/09/29 01:28:50;;;;;;;4.88;2.97;;;;;;;16.84;59.68;101033.03;5029506;28;20022;-67
2021/09/29 01:31:17;;;;;;;7.03;2.92;;;;;;;16.94;60.20;101067.19;5031945;28;20033;-68
2021/09/29 01:33:44;;;;;;;5.05;3.10;;;;;;;16.96;60.20;101067.22;5031883;28;20498;-69
2021/09/29 01:36:11;;;;;;;6.35;3.10;;;;;;;16.92;60.30;101068.00;5033555;28;20025;-71
2021/09/29 01:38:39;;;;;;;7.28;3.00;;;;;;;16.75;60.60;101058.06;5031788;28;20102;-67
2021/09/29 01:41:06;;;;;;;7.27;3.23;;;;;;;16.70;61.00;101069.22;5034264;28;20083;-69
2021/09/29 01:43:33;;;;;;;10.68;3.13;;;;;;;16.78;60.75;101073.75;5031622;28;20035;-68
2021/09/29 01:45:59;;;;;;;7.30;3.00;;;;;;;16.83;60.55;101066.03;5034387;28;20057;-67
2021/09/29 01:48:24;;;;;;;6.57;3.28;;;;;;;16.74;60.53;101039.78;5031265;28;20057;-71
2021/09/29 01:50:57;;;;;;;5.22;3.10;;;;;;;16.87;60.58;101067.00;5032713;28;20037;-68
2021/09/29 01:53:24;;;;;;;5.22;2.85;;;;;;;16.88;60.65;101069.63;5031053;28;20480;-70
2021/09/29 01:55:51;;;;;;;5.35;3.10;;;;;;;16.58;60.60;101033.38;5032071;28;20021;-67
2021/09/29 01:58:16;;;;;;;6.53;3.03;;;;;;;16.84;60.72;101064.34;5033143;28;20053;-69
2021/09/29 02:00:43;;;;;;;3.90;2.40;;;;;;;16.88;60.85;101071.38;5029525;28;20142;-69
2021/09/29 02:03:09;;;;;;;6.35;2.67;;;;;;;16.92;60.95;101068.91;5020943;28;20495;-67
2021/09/29 02:05:36;;;;;;;5.25;2.95;;;;;;;16.89;60.91;101070.53;5016478;28;20029;-67
2021/09/29 02:08:05;;;;;;;5.13;2.97;;;;;;;16.76;60.86;101059.84;5019184;28;20076;-69
2021/09/29 02:10:31;;;;;;;5.65;2.67;;;;;;;16.76;60.84;101040.69;5033316;28;20026;-67
2021/09/29 02:12:57;;;;;;;7.28;3.10;;;;;;;17.00;60.56;101063.81;5033633;28;20040;-70
2021/09/29 02:15:23;;;;;;;5.15;2.67;;;;;;;17.01;60.83;101065.59;5033844;28;20528;-71
2021/09/29 02:17:50;;;;;;;7.30;2.88;;;;;;;17.06;60.54;101065.66;5033864;28;20061;-73
2021/09/29 02:20:16;;;;;;;6.28;3.08;;;;;;;17.07;60.74;101060.50;5033981;28;20021;-71
2021/09/29 02:22:42;;;;;;;6.65;3.53;;;;;;;17.04;60.47;101049.97;5033434;28;20444;-68
2021/09/29 02:25:08;;;;;;;10.52;3.28;;;;;;;17.11;59.74;101059.69;5033353;28;20021;-73
2021/09/29 02:27:34;;;;;;;5.95;3.00;;;;;;;17.11;59.93;101074.47;5016691;28;20037;-69
2021/09/29 02:30:00;;;;;;;6.28;3.15;;;;;;;17.06;59.91;101061.34;5029975;28;20503;-67
2021/09/29 02:32:25;;;;;;;4.00;2.58;;;;;;;16.78;60.31;101028.56;5032925;28;20440;-67
2021/09/29 02:34:51;;;;;;;6.10;3.15;;;;;;;16.97;60.15;101068.97;5033320;28;20040;-70
2021/09/29 02:37:16;;;;;;;6.38;3.20;;;;;;;16.95;60.30;101050.69;5033053;28;20464;-68
2021/09/29 02:39:42;;;;;;;5.45;2.55;;;;;;;16.90;60.87;101062.72;5047706;28;20041;-71
2021/09/29 02:42:07;;;;;;;8.68;2.85;;;;;;;16.97;61.08;101072.47;5033445;28;20021;-74
2021/09/29 02:44:34;;;;;;;4.70;2.83;;;;;;;16.97;60.76;101080.28;5033144;28;20026;-68
2021/09/29 02:47:00;;;;;;;5.85;2.90;;;;;;;16.95;59.73;101063.72;5033042;28;20104;-69
2021/09/29 02:49:26;;;;;;;4.75;2.55;;;;;;;16.99;59.58;101072.50;5033000;28;20146;-66
2021/09/29 02:51:51;;;;;;;7.35;2.78;;;;;;;16.88;59.97;101076.59;5032518;28;20516;-68
2021/09/29 02:54:17;;;;;;;6.18;2.80;;;;;;;16.75;60.67;101065.03;5033094;28;20032;-74
2021/09/29 02:56:42;;;;;;;5.45;3.00;;;;;;;16.63;60.68;101079.53;5033482;28;20037;-66
2021/09/29 02:59:11;;;;;;;4.05;2.67;;;;;;;16.62;61.73;101087.31;5032727;28;20488;-71
2021/09/29 03:01:40;;;;;;;8.20;3.13;;;;;;;16.36;61.18;101052.88;5032846;28;20395;-67
2021/09/29 03:04:07;;;;;;;6.63;2.80;;;;;;;16.72;60.96;101085.81;5032571;28;20040;-67
2021/09/29 03:06:33;;;;;;;7.70;3.00;;;;;;;16.65;60.76;101080.44;5032256;28;20028;-68
2021/09/29 03:08:59;;;;;;;6.47;3.13;;;;;;;16.49;61.05;101070.53;5025848;28;20101;-70
2021/09/29 03:11:25;;;;;;;9.25;3.42;;;;;;;16.68;60.04;101070.94;5014212;28;20034;-68
2021/09/29 03:13:50;;;;;;;11.93;4.50;;;;;;;16.62;59.90;101033.47;5023289;28;20046;-71
2021/09/29 03:16:16;;;;;;;7.57;3.25;;;;;;;16.94;59.97;101072.38;5033091;28;20040;-68
2021/09/29 03:18:43;;;;;;;8.07;3.40;;;;;;;16.58;59.46;101008.16;5032783;28;20029;-69
2021/09/29 03:21:09;;;;;;;6.47;3.30;;;;;;;16.96;59.66;101062.00;5032770;28;20468;-69
2021/09/29 03:23:34;;;;;;;8.38;3.70;;;;;;;17.08;60.19;101071.81;5033001;28;20029;-69
2021/09/29 03:25:59;;;;;;;8.93;3.35;;;;;;;17.06;60.12;101066.56;5033010;28;20037;-69
2021/09/29 03:28:25;;;;;;;11.23;4.15;;;;;;;17.20;59.61;101069.44;5030742;28;20049;-69
2021/09/29 03:30:51;;;;;;;8.82;3.50;;;;;;;17.27;58.95;101075.63;5023068;28;20121;-70
2021/09/29 03:33:17;;;;;;;9.00;3.50;;;;;;;17.34;59.09;101063.59;5012988;28;20041;-69
2021/09/29 03:35:42;;;;;;;10.32;3.50;;;;;;;17.36;58.91;101061.88;5012807;28;20113;-69
2021/09/29 03:38:08;;;;;;;6.35;3.33;;;;;;;17.22;58.98;101070.34;5043934;28;20559;-69
2021/09/29 03:40:37;;;;;;;6.47;3.13;;;;;;;17.21;59.17;101062.47;5012963;28;20022;-69
2021/09/29 03:43:04;;;;;;;9.20;3.50;;;;;;;17.12;59.40;101061.47;5013119;28;20093;-69
2021/09/29 03:45:29;;;;;;;8.23;3.63;;;;;;;17.11;59.55;101061.44;5011786;28;20060;-68
2021/09/29 03:47:55;;;;;;;11.30;3.63;;;;;;;17.05;60.44;101059.56;5012646;28;20120;-68
2021/09/29 03:50:21;;;;;;;14.05;4.00;;;;;;;17.18;59.99;101067.66;5012482;28;20057;-69
2021/09/29 03:52:47;;;;;;;6.85;3.80;;;;;;;17.27;59.35;101079.16;5012898;28;20026;-69
2021/09/29 03:55:13;;;;;;;5.97;3.35;;;;;;;17.36;59.02;101085.38;5012778;28;20030;-69
2021/09/29 03:57:39;;;;;;;7.55;3.38;;;;;;;17.31;59.33;101069.66;5012654;28;20026;-69
2021/09/29 04:00:10;;;;;;;10.07;3.60;;;;;;;17.34;59.39;101087.09;5012484;28;20045;-69
2021/09/29 04:02:37;;;;;;;5.55;3.22;;;;;;;17.17;58.93;101058.06;5012218;28;20034;-68
2021/09/29 04:05:04;;;;;;;5.35;2.92;;;;;;;16.97;58.44;101030.75;5012574;28;20404;-69
2021/09/29 04:07:29;;;;;;;6.95;2.97;;;;;;;17.06;58.99;101052.63;5012466;28;20022;-71
2021/09/29 04:09:55;;;;;;;7.38;3.10;;;;;;;17.10;59.56;101096.19;5012302;28;20026;-69
2021/09/29 04:12:21;;;;;;;10.18;3.20;;;;;;;17.01;60.18;101094.28;5014069;28;20109;-68
2021/09/29 04:14:48;;;;;;;7.80;3.00;;;;;;;16.88;59.88;101106.13;5012089;28;20084;-69
2021/09/29 04:17:14;;;;;;;7.53;3.55;;;;;;;16.85;60.28;101100.88;5012315;28;20029;-69
2021/09/29 04:19:39;;;;;;;10.30;3.38;;;;;;;16.87;60.49;101106.13;5012313;28;20026;-68
2021/09/29 04:22:11;;;;;;;9.30;3.30;;;;;;;16.77;60.92;101103.31;5011582;28;20057;-70
2021/09/29 04:24:37;;;;;;;7.90;2.88;;;;;;;16.77;60.71;101120.66;5012261;28;20105;-69
2021/09/29 04:27:04;;;;;;;4.88;3.28;;;;;;;16.60;60.79;101110.75;5011624;28;20536;-69
2021/09/29 04:29:29;;;;;;;7.50;3.42;;;;;;;16.61;61.24;101109.91;5023646;28;20025;-69
2021/09/29 04:31:55;;;;;;;9.70;3.45;;;;;;;16.62;61.48;101116.91;5031506;28;20079;-68
2021/09/29 04:34:20;;;;;;;8.30;3.50;;;;;;;16.36;61.69;101086.75;5032057;28;20152;-69
2021/09/29 04:36:47;;;;;;;9.50;3.65;;;;;;;16.65;61.59;101129.13;5032000;28;20025;-69
2021/09/29 04:39:15;;;;;;;11.35;3.50;;;;;;;16.73;61.69;101121.47;5031759;28;20072;-72
2021/09/29 04:41:41;;;;;;;9.97;3.80;;;;;;;16.86;60.65;101125.22;5031844;28;20038;-69
2021/09/29 04:44:07;;;;;;;19.20;5.00;;;;;;;16.91;60.70;101123.56;5031676;28;20109;-69
2021/09/29 04:46:33;;;;;;;13.10;4.50;;;;;;;17.00;60.73;101117.69;5029798;28;20108;-69
2021/09/29 04:48:58;;;;;;;17.00;4.75;;;;;;;17.06;60.61;101117.84;5018051;28;20033;-68
2021/09/29 04:51:24;;;;;;;14.35;5.15;;;;;;;17.17;60.29;101118.97;5027947;28;20055;-68
2021/09/29 04:53:50;;;;;;;16.77;4.75;;;;;;;17.24;59.97;101126.03;5028171;28;20050;-69
2021/09/29 04:56:16;;;;;;;17.35;4.60;;;;;;;17.31;59.83;101124.44;5011338;28;20032;-68
2021/09/29 04:58:43;;;;;;;23.40;4.50;;;;;;;17.40;59.40;101131.56;5011899;28;20113;-68
2021/09/29 05:01:10;;;;;;;15.98;3.90;;;;;;;17.20;59.20;101092.06;5011992;28;20021;-67
2021/09/29 05:03:36;;;;;;;12.88;3.85;;;;;;;17.39;59.02;101129.81;5026765;28;20491;-71
2021/09/29 05:06:02;;;;;;;5.93;3.58;;;;;;;17.42;59.05;101125.53;5031284;28;20168;-68
2021/09/29 05:08:29;;;;;;;15.00;4.10;;;;;;;17.49;59.23;101133.47;5022349;28;20108;-68
2021/09/29 05:11:10;;;;;;;12.57;4.05;;;;;;;17.55;58.95;101129.25;5015411;28;20025;-71
2021/09/29 05:13:35;;;;;;;9.32;3.60;;;;;;;17.59;58.43;101128.44;4993110;28;20034;-67
2021/09/29 05:16:02;;;;;;;6.40;3.63;;;;;;;17.46;58.20;101118.66;5027256;28;20535;-71
2021/09/29 05:18:28;;;;;;;5.57;2.70;;;;;;;17.56;58.21;101137.97;5036956;28;20025;-67
2021/09/29 05:20:54;;;;;;;6.82;3.40;;;;;;;17.44;57.99;101131.66;5020032;28;20408;-68
2021/09/29 05:23:20;;;;;;;5.63;3.08;;;;;;;17.48;58.30;101134.34;5020786;28;20036;-68
2021/09/29 05:25:46;;;;;;;4.45;2.85;;;;;;;17.57;58.00;101138.00;5030044;28;20026;-68
2021/09/29 05:28:13;;;;;;;5.43;2.95;;;;;;;17.62;58.25;101143.31;5029031;28;20021;-67
2021/09/29 05:30:39;;;;;;;6.03;3.03;;;;;;;17.62;58.42;101138.09;5022692;28;20034;-66
2021/09/29 05:33:05;;;;;;;5.13;2.97;;;;;;;17.59;57.76;101135.41;5020140;28;20108;-68
2021/09/29 05:35:30;;;;;;;6.30;3.05;;;;;;;17.69;57.94;101142.56;5052111;28;20038;-68
2021/09/29 05:37:56;;;;;;;11.52;3.47;;;;;;;17.54;58.02;101144.88;5021463;28;20022;-67
2021/09/29 05:40:21;;;;;;;9.70;3.67;;;;;;;17.48;57.49;101135.19;5019778;28;20022;-67
2021/09/29 05:42:47;;;;;;;7.18;3.10;;;;;;;17.54;57.62;101152.72;5021221;28;20563;-67
2021/09/29 05:45:12;;;;;;;12.23;3.00;;;;;;;17.60;57.75;101151.09;5020944;28;20096;-68
2021/09/29 05:47:38;;;;;;;7.55;3.20;;;;;;;17.49;57.83;101125.66;5019598;28;20053;-74
2021/09/29 05:50:05;;;;;;;8.75;3.70;;;;;;;17.54;57.49;101148.38;5021573;28;22324;-66
2021/09/29 05:52:30;;;;;;;8.50;3.47;;;;;;;17.50;57.75;101150.91;5022036;28;20088;-72
2021/09/29 05:54:56;;;;;;;16.63;3.97;;;;;;;17.41;57.86;101154.22;5020308;28;20017;-69
2021/09/29 05:57:21;;;;;;;17.92;4.70;;;;;;;17.51;58.37;101164.00;5021329;28;20075;-66
2021/09/29 05:59:47;;;;;;;17.13;4.65;;;;;;;17.55;58.00;101163.19;5019810;28;20112;-67
2021/09/29 06:02:12;;;;;;;18.23;4.82;;;;;;;17.58;57.83;101167.59;5020554;28;20105;-68
2021/09/29 06:04:40;;;;;;;11.85;4.18;;;;;;;17.67;57.75;101170.41;5021465;28;20121;-67
2021/09/29 06:07:07;;;;;;;26.92;6.13;;;;;;;17.75;58.01;101175.75;5021549;28;20035;-69
2021/09/29 06:09:33;;;;;;;12.98;4.30;;;;;;;17.72;57.45;101166.13;5023429;28;20021;-66
2021/09/29 06:11:58;;;;;;;13.93;3.70;;;;;;;17.77;57.40;101176.69;5023004;28;20454;-67
2021/09/29 06:14:23;;;;;;;14.77;4.95;;;;;;;17.59;58.03;101146.72;5025040;28;20403;-68
2021/09/29 06:16:57;;;;;;;12.38;3.80;;;;;;;17.76;57.10;101173.16;5023568;28;20033;-67
2021/09/29 06:19:22;;;;;;;14.45;4.10;;;;;;;17.87;57.22;101181.22;5022963;28;20032;-67
2021/09/29 06:21:48;;;;;;;12.23;3.25;;;;;;;17.90;56.71;101185.59;5024515;28;20025;-66
2021/09/29 06:24:14;;;;;;;9.65;3.78;;;;;;;17.74;57.50;101155.72;5024017;28;20061;-69
2021/09/29 06:26:40;;;;;;;13.23;3.25;;;;;;;17.81;57.77;101162.81;5014320;28;20044;-67
2021/09/29 06:29:05;;;;;;;12.18;4.10;;;;;;;17.84;56.79;101181.13;5015699;28;20034;-72
2021/09/29 06:31:31;;;;;;;10.65;3.53;;;;;;;17.79;56.86;101188.91;5014155;28;20022;-67
2021/09/29 06:33:57;;;;;;;13.13;3.70;;;;;;;17.75;57.90;101194.91;5013866;28;20030;-68
2021/09/29 06:36:23;;;;;;;13.88;3.60;;;;;;;17.80;58.30;101195.00;5013838;28;20062;-66
2021/09/29 06:38:48;;;;;;;15.38;4.57;;;;;;;17.82;57.92;101195.03;5013541;28;20112;-70
2021/09/29 06:41:14;;;;;;;21.20;4.80;;;;;;;17.56;57.81;101159.72;5013912;28;20030;-69
2021/09/29 06:43:39;;;;;;;16.92;4.38;;;;;;;17.69;57.42;101191.31;5013747;28;20029;-68
2021/09/29 06:46:05;;;;;;;17.90;4.45;;;;;;;17.67;57.54;101203.44;5014078;28;20037;-70
2021/09/29 06:48:30;;;;;;;23.17;4.60;;;;;;;17.68;57.22;101202.59;5014091;28;20472;-68
2021/09/29 06:50:56;;;;;;;21.75;3.85;;;;;;;17.38;56.98;101168.06;5012977;28;20073;-68
2021/09/29 06:53:23;;;;;;;6.28;2.80;;;;;;;17.54;56.84;101203.19;5013618;28;20026;-68
2021/09/29 06:55:49;;;;;;;8.90;2.97;;;;;;;17.55;56.67;101194.53;5013649;28;20034;-71
2021/09/29 06:58:16;;;;;;;15.13;3.38;;;;;;;17.54;57.09;101208.41;5013788;28;20029;-68
2021/09/29 07:00:42;;;;;;;14.95;3.35;;;;;;;17.44;57.49;101196.03;5012329;28;20171;-67
2021/09/29 07:03:08;;;;;;;13.35;3.33;;;;;;;17.49;57.49;101203.97;5013363;28;20112;-72
2021/09/29 07:05:33;;;;;;;20.25;4.22;;;;;;;17.55;57.44;101204.97;5013703;28;20476;-67
2021/09/29 07:08:00;;;;;;;12.02;3.40;;;;;;;17.48;56.83;101178.72;5013344;28;20032;-68
2021/09/29 07:10:28;;;;;;;22.13;4.20;;;;;;;17.56;56.89;101206.72;5013475;28;20492;-70
2021/09/29 07:12:54;;;;;;;18.65;4.13;;;;;;;17.57;57.01;101213.72;5013494;28;20403;-68
2021/09/29 07:15:20;;;;;;;24.48;4.32;;;;;;;17.67;58.14;101206.06;5012058;28;20037;-68
2021/09/29 07:17:46;;;;;;;24.45;4.82;;;;;;;17.71;58.25;101213.13;5013367;28;20472;-68
2021/09/29 07:20:12;;;;;;;21.90;4.72;;;;;;;17.53;57.80;101177.06;5013183;28;20040;-68
2021/09/29 07:22:39;;;;;;;23.08;4.43;;;;;;;17.52;57.10;101170.97;5013040;28;20065;-68
2021/09/29 07:25:05;;;;;;;21.85;6.07;;;;;;;17.69;58.11;101210.44;5027902;28;20404;-68
2021/09/29 07:27:31;;;;;;;22.48;4.63;;;;;;;17.65;57.00;101208.63;5013355;28;20029;-67
2021/09/29 07:29:57;;;;;;;15.88;5.80;;;;;;;17.72;57.59;101218.34;5013220;28;20025;-68
2021/09/29 07:32:24;;;;;;;24.80;7.63;;;;;;;17.73;57.89;101219.22;4994455;28;20578;-66
2021/09/29 07:34:50;;;;;;;27.77;6.05;;;;;;;17.72;57.83;101214.84;5011932;28;20468;-72
2021/09/29 07:37:16;;;;;;;17.42;3.45;;;;;;;17.77;58.05;101218.47;5012826;28;20065;-68
2021/09/29 07:39:41;;;;;;;14.35;3.88;;;;;;;17.68;58.08;101229.56;5013073;28;20443;-68
2021/09/29 07:42:07;;;;;;;12.13;3.90;;;;;;;17.60;57.80;101220.72;5012933;28;20034;-70
2021/09/29 07:44:32;;;;;;;15.20;5.20;;;;;;;17.65;57.94;101234.75;5012430;28;20046;-70
2021/09/29 07:46:58;;;;;;;15.55;4.35;;;;;;;17.58;58.09;101232.84;5012796;28;20495;-69
2021/09/29 07:49:23;;;;;;;9.60;2.95;;;;;;;17.43;57.91;101218.66;5010509;28;20045;-70
2021/09/29 07:51:49;;;;;;;6.35;2.70;;;;;;;16.95;58.59;101175.00;5013026;28;20556;-70
2021/09/29 07:54:15;;;;;;;4.13;2.50;;;;;;;17.23;58.46;101223.44;5013044;28;20053;-70
2021/09/29 07:56:40;;;;;;;14.02;2.72;;;;;;;17.16;57.87;101202.41;5012901;28;20069;-70
2021/09/29 07:59:06;;;;;;;5.72;2.47;;;;;;;17.47;57.33;101230.06;5012665;28;20037;-69
2021/09/29 08:01:31;;;;;;;4.30;2.13;;;;;;;17.39;58.19;101234.22;5012644;28;20026;-69
2021/09/29 08:03:57;;;;;;;7.55;2.17;;;;;;;17.19;57.90;101203.34;5012302;28;20033;-68
2021/09/29 08:06:22;;;;;;;7.18;2.45;;;;;;;17.50;57.94;101235.31;4994122;28;20423;-69
2021/09/29 08:08:49;;;;;;;7.57;2.25;;;;;;;17.50;57.27;101237.94;5012231;28;20052;-69
2021/09/29 08:11:16;;;;;;;6.78;2.40;;;;;;;17.48;57.88;101226.56;5012486;28;20113;-69
2021/09/29 08:13:42;;;;;;;9.98;2.85;;;;;;;17.59;57.47;101235.50;5012355;28;20478;-69
2021/09/29 08:16:07;;;;;;;12.57;3.47;;;;;;;17.65;56.59;101232.13;5012260;28;20060;-69
2021/09/29 08:18:33;;;;;;;8.73;2.47;;;;;;;17.72;57.40;101233.13;5012403;28;20400;-69
2021/09/29 08:21:01;;;;;;;3.85;2.40;;;;;;;17.66;57.79;101228.69;5014290;28;20484;-69
2021/09/29 08:23:38;;;;;;;13.00;3.75;;;;;;;17.70;57.54;101230.50;5027576;28;20045;-70
2021/09/29 08:36:44;;;;;;;6.82;2.90;;;;;;;17.54;57.92;101229.31;4980414;28;20038;-68
2021/09/29 08:39:17;;;;;;;;;;;;;;;17.59;57.88;101230.28;4980867;28;20409;-67
2021/09/29 08:42:23;;;;;;;9.00;3.15;;;;;;;17.52;57.06;101219.69;4976642;28;19918;-71
2021/09/29 09:16:40;;;;;;;7.10;3.03;;;;;;;17.85;57.73;101232.53;5022197;28;20514;-69
2021/09/29 09:19:09;;;;;;;9.38;3.83;;;;;;;17.75;59.04;101235.81;5021188;28;20169;-68
2021/09/29 09:21:43;;;;;;;15.27;4.47;;;;;;;17.81;58.94;101246.38;5020014;28;20022;-72
2021/09/29 09:24:20;;;;;;;13.25;4.20;;;;;;;17.79;58.48;101199.34;5020182;28;20033;-68
2021/09/29 09:26:57;;;;;;;8.55;3.03;;;;;;;18.03;57.85;101224.22;5021809;28;20018;-68
2021/09/29 09:29:22;;;;;;;7.45;2.90;;;;;;;18.10;58.02;101238.25;5020730;28;20087;-68
2021/09/29 09:31:48;;;;;;;12.18;4.03;;;;;;;18.04;58.68;101235.53;5014059;28;20117;-71
2021/09/29 09:34:13;;;;;;;12.88;4.13;;;;;;;18.09;58.24;101232.16;5011026;28;20026;-69
2021/09/29 09:36:49;;;;;;;18.88;5.22;;;;;;;18.18;57.76;101236.66;5011232;28;20029;-69
2021/09/29 09:39:20;;;;;;;13.45;3.65;;;;;;;18.29;57.42;101223.75;5011368;28;20053;-69
2021/09/29 09:41:51;;;;;;;12.23;3.85;;;;;;;18.39;57.43;101219.56;5023513;28;20037;-68
2021/09/29 09:44:26;;;;;;;9.07;3.28;;;;;;;18.49;57.15;101218.00;5033519;28;20034;-69
2021/09/29 09:47:07;;;;;;;12.35;3.63;;;;;;;18.61;56.62;101228.66;5034591;28;20037;-70
2021/09/29 09:49:44;;;;;;;13.00;3.40;;;;;;;18.72;56.38;101226.22;5032348;28;20045;-69
2021/09/29 09:52:10;;;;;;;20.67;4.35;;;;;;;18.72;55.53;101215.75;5034599;28;20034;-69
2021/09/29 09:54:40;;;;;;;15.93;4.15;;;;;;;18.83;55.85;101216.81;5034337;28;20030;-73
2021/09/29 09:57:20;;;;;;;15.88;4.28;;;;;;;18.95;55.25;101212.63;5034746;28;20109;-69
2021/09/29 09:59:50;;;;;;;14.10;4.53;;;;;;;18.78;56.30;101184.47;5032890;28;20554;-67
2021/09/29 10:02:16;;;;;;;12.57;5.30;;;;;;;18.95;55.67;101223.97;5033920;28;20030;-68
2021/09/29 10:04:42;;;;;;;11.25;4.05;;;;;;;18.92;55.21;101209.09;5033918;28;20076;-69
2021/09/29 10:07:08;;;;;;;15.57;4.80;;;;;;;18.88;54.49;101191.56;5023762;28;20041;-68
2021/09/29 10:22:54;;;;;;;7.95;3.20;;;;;;;19.05;55.93;101228.50;5033985;28;20120;-74
2021/09/29 10:28:10;;;;;;;5.43;3.88;;;;;;;18.68;56.00;101225.28;5027253;28;20053;-69
2021/09/29 10:30:45;;;;;;;10.50;3.00;;;;;;;18.62;55.69;101229.53;5024875;28;20112;-68
2021/09/29 10:33:27;;;;;;;9.15;3.58;;;;;;;18.79;56.22;101222.84;5030943;28;20029;-69
2021/09/29 10:41:07;;;;;;;16.35;4.95;;;;;;;18.81;56.35;101220.25;5030267;28;20046;-70
2021/09/29 10:52:12;;;;;;;7.68;3.20;;;;;;;19.17;55.91;101213.81;4980549;28;20046;-71
2021/09/29 11:06:34;;;;;;;10.57;3.22;;;;;;;19.08;53.30;101211.97;4912668;29;20096;-72
2021/09/29 11:28:48;;;;;;;5.72;2.97;;;;;;;19.15;53.55;101173.66;4890783;29;20055;-68
2021/09/29 11:34:12;;;;;;;9.07;3.30;;;;;;;19.45;52.53;101175.78;4911683;28;20038;-67
2021/09/29 11:39:44;;;;;;;6.00;2.80;;;;;;;19.23;52.54;101180.72;4979053;28;20122;-73
2021/09/29 12:10:07;;;;;;;7.80;2.75;;;;;;;19.84;50.13;101161.38;5031445;28;20035;-69
2021/09/29 12:12:36;;;;;;;7.78;2.55;;;;;;;19.73;50.72;101168.22;5021542;28;20025;-69
2021/09/29 12:15:07;;;;;;;6.53;2.70;;;;;;;19.69;50.86;101164.69;5029140;28;20404;-71
2021/09/29 12:17:40;;;;;;;7.47;2.70;;;;;;;19.76;50.52;101164.75;5031968;28;20029;-70
2021/09/29 12:20:19;;;;;;;16.75;3.17;;;;;;;19.82;50.55;101170.03;5031479;28;20029;-69
2021/09/29 12:22:50;;;;;;;10.38;2.85;;;;;;;19.65;50.75;101148.91;5031210;28;20039;-68
2021/09/29 12:25:37;;;;;;;7.47;2.60;;;;;;;19.75;49.85;101165.59;5031127;28;20415;-71
2021/09/29 12:28:37;;;;;;;6.63;2.78;;;;;;;19.69;50.49;101162.06;5046779;28;20037;-72
2021/09/29 12:33:57;;;;;;;6.30;3.00;;;;;;;19.67;49.50;101161.16;5025138;28;20468;-70
2021/09/29 12:36:31;;;;;;;6.50;2.40;;;;;;;19.37;49.80;101122.44;5031018;28;20036;-65
2021/09/29 12:38:58;;;;;;;6.55;2.42;;;;;;;19.61;49.46;101157.59;5026182;28;20121;-70
2021/09/29 12:41:27;;;;;;;6.65;2.67;;;;;;;19.38;50.80;101126.81;5012013;28;20445;-69
2021/09/29 12:44:08;;;;;;;6.97;2.55;;;;;;;19.48;50.37;101152.22;5013594;28;20026;-67
2021/09/29 12:46:35;;;;;;;7.13;3.28;;;;;;;19.49;49.37;101132.16;5020805;28;20084;-66
2021/09/29 12:49:08;;;;;;;6.50;2.97;;;;;;;19.69;50.11;101146.34;5019575;28;20026;-71
2021/09/29 12:51:51;;;;;;;7.55;2.95;;;;;;;19.71;49.91;101148.97;5017344;28;20504;-70
2021/09/29 12:54:22;;;;;;;9.20;3.22;;;;;;;19.64;49.46;101140.19;5014562;28;20069;-70
2021/09/29 12:56:47;;;;;;;4.78;2.80;;;;;;;19.72;48.26;101148.97;5011255;28;20443;-73
2021/09/29 12:59:13;;;;;;;5.78;3.42;;;;;;;19.90;48.73;101136.97;5010864;28;20032;-69
2021/09/29 13:01:38;;;;;;;11.32;3.95;;;;;;;19.94;48.93;101132.63;5044099;28;20452;-69
2021/09/29 13:04:04;;;;;;;5.97;3.20;;;;;;;19.77;49.01;101101.88;5016338;28;20030;-72
2021/09/29 13:06:30;;;;;;;12.15;2.90;;;;;;;20.00;47.18;101144.06;5030042;28;20029;-70
2021/09/29 13:08:55;;;;;;;9.27;2.78;;;;;;;20.20;48.55;101127.63;5028648;28;20056;-69
2021/09/29 13:11:20;;;;;;;5.05;2.95;;;;;;;20.19;46.49;101128.47;5023192;28;20034;-71
2021/09/29 13:13:46;;;;;;;5.85;2.95;;;;;;;20.25;46.41;101125.00;5027797;28;20088;-69
2021/09/29 13:16:11;;;;;;;5.78;2.88;;;;;;;20.25;46.67;101136.38;5029580;28;20454;-70
2021/09/29 13:21:31;;;;;;;11.40;4.43;;;;;;;20.16;47.76;101138.94;5034879;28;20068;-73
2021/09/29 13:23:59;;;;;;;9.85;4.30;;;;;;;20.16;46.76;101121.47;5034403;28;20029;-73
2021/09/29 13:37:22;;;;;;;10.73;3.13;;;;;;;20.20;46.71;101117.13;4973743;28;20042;-74
2021/09/29 13:39:47;;;;;;;13.18;4.50;;;;;;;20.26;46.97;101105.78;4973387;28;20034;-74
2021/09/29 13:42:14;;;;;;;6.18;2.78;;;;;;;20.18;46.56;101122.34;4973486;28;20134;-74
2021/09/29 13:44:39;;;;;;;14.43;3.28;;;;;;;20.23;47.64;101124.13;4973813;28;20034;-73
2021/09/29 13:47:06;;;;;;;9.60;3.30;;;;;;;20.10;47.51;101131.00;4973933;28;20046;-74
2021/09/29 13:49:32;;;;;;;4.82;3.00;;;;;;;20.16;47.58;101116.22;4972832;28;20026;-73
2021/09/29 13:51:58;;;;;;;5.10;2.75;;;;;;;19.94;47.32;101104.69;4973116;28;20053;-72
2021/09/29 13:54:25;;;;;;;6.20;2.97;;;;;;;20.06;47.01;101108.28;4972404;28;20410;-72
2021/09/29 14:31:39;;;;;;;7.30;3.05;;;;;;;20.42;46.35;101135.63;5034107;28;20021;-75
2021/09/29 14:34:05;;;;;;;11.82;3.55;;;;;;;20.36;46.12;101133.81;5033777;28;20038;-74